sensor_id;sensor_type;location;lat;lon;timestamp;P1;durP1;ratioP1;P2;durP2;ratioP2
48516;SDS011;34310;51.904;4.256;2023-04-24T00:00:23;3.15;;;2.33;;
48516;SDS011;34310;51.904;4.256;2023-04-24T00:02:51;3.88;;;2.25;;
48516;SDS011;34310;51.904;4.256;2023-04-24T00:05:23;3.90;;;2.50;;
48516;SDS011;34310;51.904;4.256;2023-04-24T00:07:51;3.85;;;2.40;;
48516;SDS011;34310;51.904;4.256;2023-04-24T00:10:18;4.43;;;2.17;;
48516;SDS011;34310;51.904;4.256;2023-04-24T00:12:46;4.30;;;2.03;;
48516;SDS011;34310;51.904;4.256;2023-04-24T00:15:13;3.00;;;2.22;;
48516;SDS011;34310;51.904;4.256;2023-04-24T00:17:41;3.65;;;2.40;;
48516;SDS011;34310;51.904;4.256;2023-04-24T00:20:08;3.15;;;2.20;;
48516;SDS011;34310;51.904;4.256;2023-04-24T00:22:37;3.05;;;2.13;;
48516;SDS011;34310;51.904;4.256;2023-04-24T00:25:04;3.03;;;1.90;;
48516;SDS011;34310;51.904;4.256;2023-04-24T00:27:32;3.42;;;2.60;;
48516;SDS011;34310;51.904;4.256;2023-04-24T00:30:01;3.65;;;2.13;;
48516;SDS011;34310;51.904;4.256;2023-04-24T00:32:29;3.50;;;2.10;;
48516;SDS011;34310;51.904;4.256;2023-04-24T00:34:56;2.30;;;1.80;;
48516;SDS011;34310;51.904;4.256;2023-04-24T00:37:24;2.50;;;1.88;;
48516;SDS011;34310;51.904;4.256;2023-04-24T00:39:51;2.15;;;1.70;;
48516;SDS011;34310;51.904;4.256;2023-04-24T00:42:18;3.38;;;2.03;;
48516;SDS011;34310;51.904;4.256;2023-04-24T00:44:46;2.78;;;2.03;;
48516;SDS011;34310;51.904;4.256;2023-04-24T00:47:14;2.45;;;1.58;;
48516;SDS011;34310;51.904;4.256;2023-04-24T00:49:42;1.90;;;1.70;;
48516;SDS011;34310;51.904;4.256;2023-04-24T00:52:10;2.83;;;1.80;;
48516;SDS011;34310;51.904;4.256;2023-04-24T00:54:38;3.13;;;1.80;;
48516;SDS011;34310;51.904;4.256;2023-04-24T00:57:06;1.80;;;1.50;;
48516;SDS011;34310;51.904;4.256;2023-04-24T00:59:34;2.15;;;1.70;;
48516;SDS011;34310;51.904;4.256;2023-04-24T01:02:02;2.15;;;1.70;;
48516;SDS011;34310;51.904;4.256;2023-04-24T01:04:30;1.98;;;1.60;;
48516;SDS011;34310;51.904;4.256;2023-04-24T01:06:57;2.17;;;1.85;;
48516;SDS011;34310;51.904;4.256;2023-04-24T01:09:25;2.17;;;1.70;;
48516;SDS011;34310;51.904;4.256;2023-04-24T01:11:52;2.65;;;1.70;;
48516;SDS011;34310;51.904;4.256;2023-04-24T01:14:20;2.08;;;1.70;;
48516;SDS011;34310;51.904;4.256;2023-04-24T01:16:48;2.15;;;1.63;;
48516;SDS011;34310;51.904;4.256;2023-04-24T01:19:15;2.35;;;1.80;;
48516;SDS011;34310;51.904;4.256;2023-04-24T01:21:45;2.25;;;1.70;;
48516;SDS011;34310;51.904;4.256;2023-04-24T01:24:16;2.15;;;1.60;;
48516;SDS011;34310;51.904;4.256;2023-04-24T01:26:45;1.58;;;1.40;;
48516;SDS011;34310;51.904;4.256;2023-04-24T01:29:13;1.92;;;1.60;;
48516;SDS011;34310;51.904;4.256;2023-04-24T01:31:40;2.30;;;1.58;;
48516;SDS011;34310;51.904;4.256;2023-04-24T01:34:09;3.10;;;1.98;;
48516;SDS011;34310;51.904;4.256;2023-04-24T01:36:36;1.65;;;1.48;;
48516;SDS011;34310;51.904;4.256;2023-04-24T01:39:05;2.42;;;1.60;;
48516;SDS011;34310;51.904;4.256;2023-04-24T01:41:32;2.13;;;1.70;;
48516;SDS011;34310;51.904;4.256;2023-04-24T01:44:00;2.20;;;1.55;;
48516;SDS011;34310;51.904;4.256;2023-04-24T01:46:28;1.90;;;1.27;;
48516;SDS011;34310;51.904;4.256;2023-04-24T01:48:58;2.20;;;1.50;;
48516;SDS011;34310;51.904;4.256;2023-04-24T01:51:26;1.95;;;1.40;;
48516;SDS011;34310;51.904;4.256;2023-04-24T01:53:54;2.00;;;1.60;;
48516;SDS011;34310;51.904;4.256;2023-04-24T01:56:22;2.75;;;1.40;;
48516;SDS011;34310;51.904;4.256;2023-04-24T01:58:50;2.22;;;1.65;;
48516;SDS011;34310;51.904;4.256;2023-04-24T02:01:21;2.03;;;1.33;;
48516;SDS011;34310;51.904;4.256;2023-04-24T02:03:51;1.52;;;1.42;;
48516;SDS011;34310;51.904;4.256;2023-04-24T02:06:19;1.98;;;1.52;;
48516;SDS011;34310;51.904;4.256;2023-04-24T02:08:46;2.22;;;1.60;;
48516;SDS011;34310;51.904;4.256;2023-04-24T02:11:13;2.03;;;1.42;;
48516;SDS011;34310;51.904;4.256;2023-04-24T02:13:41;1.92;;;1.50;;
48516;SDS011;34310;51.904;4.256;2023-04-24T02:16:08;2.55;;;1.55;;
48516;SDS011;34310;51.904;4.256;2023-04-24T02:18:35;1.50;;;1.08;;
48516;SDS011;34310;51.904;4.256;2023-04-24T02:21:03;1.33;;;1.23;;
48516;SDS011;34310;51.904;4.256;2023-04-24T02:23:30;1.55;;;1.33;;
48516;SDS011;34310;51.904;4.256;2023-04-24T02:25:57;1.58;;;1.25;;
48516;SDS011;34310;51.904;4.256;2023-04-24T02:28:25;1.73;;;1.40;;
48516;SDS011;34310;51.904;4.256;2023-04-24T02:30:52;1.58;;;1.35;;
48516;SDS011;34310;51.904;4.256;2023-04-24T02:33:19;1.40;;;1.10;;
48516;SDS011;34310;51.904;4.256;2023-04-24T02:35:47;1.50;;;1.17;;
48516;SDS011;34310;51.904;4.256;2023-04-24T02:38:14;1.38;;;1.20;;
48516;SDS011;34310;51.904;4.256;2023-04-24T02:40:41;1.42;;;1.05;;
48516;SDS011;34310;51.904;4.256;2023-04-24T02:43:09;1.25;;;1.15;;
48516;SDS011;34310;51.904;4.256;2023-04-24T02:45:36;1.33;;;1.10;;
48516;SDS011;34310;51.904;4.256;2023-04-24T02:48:04;1.67;;;1.20;;
48516;SDS011;34310;51.904;4.256;2023-04-24T02:50:32;1.30;;;1.10;;
48516;SDS011;34310;51.904;4.256;2023-04-24T02:52:59;1.38;;;1.10;;
48516;SDS011;34310;51.904;4.256;2023-04-24T02:55:27;1.10;;;1.00;;
48516;SDS011;34310;51.904;4.256;2023-04-24T02:57:54;1.40;;;1.10;;
48516;SDS011;34310;51.904;4.256;2023-04-24T03:00:21;1.88;;;1.00;;
48516;SDS011;34310;51.904;4.256;2023-04-24T03:02:49;1.10;;;1.00;;
48516;SDS011;34310;51.904;4.256;2023-04-24T03:05:16;1.00;;;0.90;;
48516;SDS011;34310;51.904;4.256;2023-04-24T03:07:44;1.58;;;1.10;;
48516;SDS011;34310;51.904;4.256;2023-04-24T03:10:12;1.30;;;1.20;;
48516;SDS011;34310;51.904;4.256;2023-04-24T03:12:39;1.23;;;0.80;;
48516;SDS011;34310;51.904;4.256;2023-04-24T03:15:07;0.93;;;0.82;;
48516;SDS011;34310;51.904;4.256;2023-04-24T03:17:35;1.02;;;0.93;;
48516;SDS011;34310;51.904;4.256;2023-04-24T03:20:03;1.08;;;0.95;;
48516;SDS011;34310;51.904;4.256;2023-04-24T03:22:31;0.90;;;0.85;;
48516;SDS011;34310;51.904;4.256;2023-04-24T03:25:00;1.40;;;0.80;;
48516;SDS011;34310;51.904;4.256;2023-04-24T03:27:27;0.80;;;0.80;;
48516;SDS011;34310;51.904;4.256;2023-04-24T03:29:54;2.50;;;0.90;;
48516;SDS011;34310;51.904;4.256;2023-04-24T03:32:22;1.30;;;0.88;;
48516;SDS011;34310;51.904;4.256;2023-04-24T03:34:49;1.58;;;0.85;;
48516;SDS011;34310;51.904;4.256;2023-04-24T03:37:17;1.20;;;0.90;;
48516;SDS011;34310;51.904;4.256;2023-04-24T03:39:44;1.20;;;0.80;;
48516;SDS011;34310;51.904;4.256;2023-04-24T03:42:11;1.88;;;0.90;;
48516;SDS011;34310;51.904;4.256;2023-04-24T03:44:39;0.68;;;0.68;;
48516;SDS011;34310;51.904;4.256;2023-04-24T03:47:06;1.50;;;0.82;;
48516;SDS011;34310;51.904;4.256;2023-04-24T03:49:33;1.48;;;0.98;;
48516;SDS011;34310;51.904;4.256;2023-04-24T03:52:00;1.08;;;0.80;;
48516;SDS011;34310;51.904;4.256;2023-04-24T03:54:28;2.30;;;1.20;;
48516;SDS011;34310;51.904;4.256;2023-04-24T03:56:55;1.45;;;0.82;;
48516;SDS011;34310;51.904;4.256;2023-04-24T03:59:22;1.35;;;0.85;;
48516;SDS011;34310;51.904;4.256;2023-04-24T04:01:50;1.33;;;0.93;;
48516;SDS011;34310;51.904;4.256;2023-04-24T04:04:17;0.90;;;0.82;;
48516;SDS011;34310;51.904;4.256;2023-04-24T04:06:45;1.27;;;0.90;;
48516;SDS011;34310;51.904;4.256;2023-04-24T04:09:12;1.48;;;0.93;;
48516;SDS011;34310;51.904;4.256;2023-04-24T04:11:40;2.53;;;1.00;;
48516;SDS011;34310;51.904;4.256;2023-04-24T04:14:07;1.17;;;0.90;;
48516;SDS011;34310;51.904;4.256;2023-04-24T04:16:34;2.22;;;1.15;;
48516;SDS011;34310;51.904;4.256;2023-04-24T04:19:02;2.03;;;1.08;;
48516;SDS011;34310;51.904;4.256;2023-04-24T04:21:30;1.98;;;1.25;;
48516;SDS011;34310;51.904;4.256;2023-04-24T04:23:58;1.23;;;1.10;;
48516;SDS011;34310;51.904;4.256;2023-04-24T04:26:25;1.60;;;1.15;;
48516;SDS011;34310;51.904;4.256;2023-04-24T04:28:53;1.55;;;1.10;;
48516;SDS011;34310;51.904;4.256;2023-04-24T04:31:20;2.53;;;1.20;;
48516;SDS011;34310;51.904;4.256;2023-04-24T04:33:49;1.98;;;1.10;;
48516;SDS011;34310;51.904;4.256;2023-04-24T04:36:16;2.20;;;1.05;;
48516;SDS011;34310;51.904;4.256;2023-04-24T04:38:44;2.05;;;1.20;;
48516;SDS011;34310;51.904;4.256;2023-04-24T04:41:11;1.83;;;1.30;;
48516;SDS011;34310;51.904;4.256;2023-04-24T04:43:38;2.30;;;1.20;;
48516;SDS011;34310;51.904;4.256;2023-04-24T04:46:06;2.78;;;1.38;;
48516;SDS011;34310;51.904;4.256;2023-04-24T04:48:34;2.30;;;1.55;;
48516;SDS011;34310;51.904;4.256;2023-04-24T04:51:02;3.00;;;1.50;;
48516;SDS011;34310;51.904;4.256;2023-04-24T04:53:29;3.28;;;1.63;;
48516;SDS011;34310;51.904;4.256;2023-04-24T04:55:57;2.47;;;1.77;;
48516;SDS011;34310;51.904;4.256;2023-04-24T04:58:25;2.17;;;1.50;;
48516;SDS011;34310;51.904;4.256;2023-04-24T05:00:53;3.28;;;1.90;;
48516;SDS011;34310;51.904;4.256;2023-04-24T05:03:20;2.35;;;1.90;;
48516;SDS011;34310;51.904;4.256;2023-04-24T05:05:47;2.72;;;1.48;;
48516;SDS011;34310;51.904;4.256;2023-04-24T05:08:15;3.20;;;2.15;;
48516;SDS011;34310;51.904;4.256;2023-04-24T05:10:53;2.22;;;1.92;;
48516;SDS011;34310;51.904;4.256;2023-04-24T05:13:21;4.13;;;2.30;;
48516;SDS011;34310;51.904;4.256;2023-04-24T05:16:04;4.40;;;2.40;;
48516;SDS011;34310;51.904;4.256;2023-04-24T05:18:32;3.70;;;2.20;;
48516;SDS011;34310;51.904;4.256;2023-04-24T05:21:00;3.95;;;1.90;;
48516;SDS011;34310;51.904;4.256;2023-04-24T05:23:27;2.40;;;2.00;;
48516;SDS011;34310;51.904;4.256;2023-04-24T05:25:55;2.90;;;2.20;;
48516;SDS011;34310;51.904;4.256;2023-04-24T05:28:22;4.00;;;2.28;;
48516;SDS011;34310;51.904;4.256;2023-04-24T05:30:54;5.13;;;2.60;;
48516;SDS011;34310;51.904;4.256;2023-04-24T05:33:22;4.20;;;2.47;;
48516;SDS011;34310;51.904;4.256;2023-04-24T05:35:49;4.00;;;2.40;;
48516;SDS011;34310;51.904;4.256;2023-04-24T05:38:17;3.35;;;2.63;;
48516;SDS011;34310;51.904;4.256;2023-04-24T05:40:45;3.80;;;2.78;;
48516;SDS011;34310;51.904;4.256;2023-04-24T05:43:13;4.63;;;2.60;;
48516;SDS011;34310;51.904;4.256;2023-04-24T05:45:40;3.88;;;2.63;;
48516;SDS011;34310;51.904;4.256;2023-04-24T05:48:07;3.97;;;2.40;;
48516;SDS011;34310;51.904;4.256;2023-04-24T05:50:35;3.53;;;2.50;;
48516;SDS011;34310;51.904;4.256;2023-04-24T05:53:02;4.95;;;2.72;;
48516;SDS011;34310;51.904;4.256;2023-04-24T05:55:30;4.53;;;2.22;;
48516;SDS011;34310;51.904;4.256;2023-04-24T05:57:58;5.13;;;2.67;;
48516;SDS011;34310;51.904;4.256;2023-04-24T06:00:26;4.63;;;2.78;;
48516;SDS011;34310;51.904;4.256;2023-04-24T06:02:53;4.35;;;2.47;;
48516;SDS011;34310;51.904;4.256;2023-04-24T06:05:21;4.53;;;2.40;;
48516;SDS011;34310;51.904;4.256;2023-04-24T06:07:49;4.68;;;2.67;;
48516;SDS011;34310;51.904;4.256;2023-04-24T06:10:17;5.28;;;2.70;;
48516;SDS011;34310;51.904;4.256;2023-04-24T06:12:44;3.83;;;2.40;;
48516;SDS011;34310;51.904;4.256;2023-04-24T06:15:11;5.80;;;2.58;;
48516;SDS011;34310;51.904;4.256;2023-04-24T06:17:39;7.00;;;2.67;;
48516;SDS011;34310;51.904;4.256;2023-04-24T06:20:06;3.85;;;2.50;;
48516;SDS011;34310;51.904;4.256;2023-04-24T06:22:34;4.57;;;2.70;;
48516;SDS011;34310;51.904;4.256;2023-04-24T06:25:02;5.95;;;2.10;;
48516;SDS011;34310;51.904;4.256;2023-04-24T06:27:29;3.95;;;2.83;;
48516;SDS011;34310;51.904;4.256;2023-04-24T06:29:56;3.75;;;2.75;;
48516;SDS011;34310;51.904;4.256;2023-04-24T06:32:24;5.72;;;2.80;;
48516;SDS011;34310;51.904;4.256;2023-04-24T06:34:51;4.35;;;2.40;;
48516;SDS011;34310;51.904;4.256;2023-04-24T06:37:19;3.72;;;2.50;;
48516;SDS011;34310;51.904;4.256;2023-04-24T06:39:47;5.63;;;2.47;;
48516;SDS011;34310;51.904;4.256;2023-04-24T06:42:14;4.82;;;2.30;;
48516;SDS011;34310;51.904;4.256;2023-04-24T06:44:42;4.07;;;2.20;;
48516;SDS011;34310;51.904;4.256;2023-04-24T06:47:09;4.95;;;2.72;;
48516;SDS011;34310;51.904;4.256;2023-04-24T06:49:39;3.78;;;2.42;;
48516;SDS011;34310;51.904;4.256;2023-04-24T06:52:08;4.45;;;2.08;;
48516;SDS011;34310;51.904;4.256;2023-04-24T06:54:35;5.90;;;2.30;;
48516;SDS011;34310;51.904;4.256;2023-04-24T06:57:02;6.18;;;2.67;;
48516;SDS011;34310;51.904;4.256;2023-04-24T06:59:30;9.35;;;2.40;;
48516;SDS011;34310;51.904;4.256;2023-04-24T07:01:57;7.57;;;2.67;;
48516;SDS011;34310;51.904;4.256;2023-04-24T07:04:25;8.23;;;2.80;;
48516;SDS011;34310;51.904;4.256;2023-04-24T07:06:52;9.95;;;2.53;;
48516;SDS011;34310;51.904;4.256;2023-04-24T07:09:24;5.50;;;2.45;;
48516;SDS011;34310;51.904;4.256;2023-04-24T07:11:52;7.00;;;2.53;;
48516;SDS011;34310;51.904;4.256;2023-04-24T07:14:20;7.13;;;2.38;;
48516;SDS011;34310;51.904;4.256;2023-04-24T07:16:47;7.95;;;2.60;;
48516;SDS011;34310;51.904;4.256;2023-04-24T07:19:14;15.45;;;3.20;;
48516;SDS011;34310;51.904;4.256;2023-04-24T07:21:42;5.57;;;2.22;;
48516;SDS011;34310;51.904;4.256;2023-04-24T07:24:09;5.65;;;2.50;;
48516;SDS011;34310;51.904;4.256;2023-04-24T07:26:38;7.47;;;2.38;;
48516;SDS011;34310;51.904;4.256;2023-04-24T07:29:06;5.03;;;1.95;;
48516;SDS011;34310;51.904;4.256;2023-04-24T07:31:34;7.15;;;2.53;;
48516;SDS011;34310;51.904;4.256;2023-04-24T07:34:01;4.57;;;1.98;;
48516;SDS011;34310;51.904;4.256;2023-04-24T07:36:28;9.25;;;2.47;;
48516;SDS011;34310;51.904;4.256;2023-04-24T07:38:56;5.50;;;2.30;;
48516;SDS011;34310;51.904;4.256;2023-04-24T07:41:23;4.15;;;1.90;;
48516;SDS011;34310;51.904;4.256;2023-04-24T07:43:51;7.70;;;2.08;;
48516;SDS011;34310;51.904;4.256;2023-04-24T07:46:20;5.82;;;2.00;;
48516;SDS011;34310;51.904;4.256;2023-04-24T07:48:47;6.10;;;2.35;;
48516;SDS011;34310;51.904;4.256;2023-04-24T07:51:27;6.60;;;1.92;;
48516;SDS011;34310;51.904;4.256;2023-04-24T07:53:54;4.32;;;1.83;;
48516;SDS011;34310;51.904;4.256;2023-04-24T07:56:21;5.50;;;2.28;;
48516;SDS011;34310;51.904;4.256;2023-04-24T07:58:50;4.82;;;1.98;;
48516;SDS011;34310;51.904;4.256;2023-04-24T08:01:18;6.50;;;1.95;;
48516;SDS011;34310;51.904;4.256;2023-04-24T08:03:45;4.15;;;1.95;;
48516;SDS011;34310;51.904;4.256;2023-04-24T08:06:13;6.10;;;1.98;;
48516;SDS011;34310;51.904;4.256;2023-04-24T08:08:40;6.95;;;1.98;;
48516;SDS011;34310;51.904;4.256;2023-04-24T08:11:07;6.40;;;2.13;;
48516;SDS011;34310;51.904;4.256;2023-04-24T08:13:34;6.70;;;2.05;;
48516;SDS011;34310;51.904;4.256;2023-04-24T08:16:02;3.50;;;2.30;;
48516;SDS011;34310;51.904;4.256;2023-04-24T08:18:29;5.75;;;2.30;;
48516;SDS011;34310;51.904;4.256;2023-04-24T08:20:57;4.22;;;1.80;;
48516;SDS011;34310;51.904;4.256;2023-04-24T08:23:27;6.47;;;2.13;;
48516;SDS011;34310;51.904;4.256;2023-04-24T08:25:55;10.45;;;1.90;;
48516;SDS011;34310;51.904;4.256;2023-04-24T08:28:24;6.15;;;2.03;;
48516;SDS011;34310;51.904;4.256;2023-04-24T08:30:52;5.65;;;1.90;;
48516;SDS011;34310;51.904;4.256;2023-04-24T08:33:24;4.75;;;1.80;;
48516;SDS011;34310;51.904;4.256;2023-04-24T08:35:52;7.07;;;1.70;;
48516;SDS011;34310;51.904;4.256;2023-04-24T08:38:19;11.10;;;1.92;;
48516;SDS011;34310;51.904;4.256;2023-04-24T08:40:47;7.97;;;2.47;;
48516;SDS011;34310;51.904;4.256;2023-04-24T08:43:15;5.35;;;1.60;;
48516;SDS011;34310;51.904;4.256;2023-04-24T08:45:43;4.60;;;1.70;;
48516;SDS011;34310;51.904;4.256;2023-04-24T08:48:10;2.95;;;1.75;;
48516;SDS011;34310;51.904;4.256;2023-04-24T08:50:56;9.30;;;2.08;;
48516;SDS011;34310;51.904;4.256;2023-04-24T08:53:25;6.50;;;1.63;;
48516;SDS011;34310;51.904;4.256;2023-04-24T08:55:54;3.25;;;1.73;;
48516;SDS011;34310;51.904;4.256;2023-04-24T08:58:24;9.50;;;1.90;;
48516;SDS011;34310;51.904;4.256;2023-04-24T09:00:56;7.47;;;1.65;;
48516;SDS011;34310;51.904;4.256;2023-04-24T09:03:26;8.05;;;1.77;;
48516;SDS011;34310;51.904;4.256;2023-04-24T09:05:55;3.78;;;1.52;;
48516;SDS011;34310;51.904;4.256;2023-04-24T09:08:24;8.32;;;1.65;;
48516;SDS011;34310;51.904;4.256;2023-04-24T09:10:52;3.80;;;1.35;;
48516;SDS011;34310;51.904;4.256;2023-04-24T09:13:20;3.58;;;1.52;;
48516;SDS011;34310;51.904;4.256;2023-04-24T09:15:47;4.43;;;1.48;;
48516;SDS011;34310;51.904;4.256;2023-04-24T09:18:15;4.18;;;1.50;;
48516;SDS011;34310;51.904;4.256;2023-04-24T09:21:02;4.25;;;1.63;;
48516;SDS011;34310;51.904;4.256;2023-04-24T09:23:32;5.00;;;1.60;;
48516;SDS011;34310;51.904;4.256;2023-04-24T09:26:00;6.47;;;1.70;;
48516;SDS011;34310;51.904;4.256;2023-04-24T09:28:32;4.32;;;1.40;;
48516;SDS011;34310;51.904;4.256;2023-04-24T09:33:57;2.55;;;1.38;;
48516;SDS011;34310;51.904;4.256;2023-04-24T09:36:29;7.32;;;1.48;;
48516;SDS011;34310;51.904;4.256;2023-04-24T09:39:08;3.95;;;1.38;;
48516;SDS011;34310;51.904;4.256;2023-04-24T09:41:50;3.30;;;1.23;;
48516;SDS011;34310;51.904;4.256;2023-04-24T09:44:19;4.70;;;1.08;;
48516;SDS011;34310;51.904;4.256;2023-04-24T09:46:51;3.80;;;1.00;;
48516;SDS011;34310;51.904;4.256;2023-04-24T09:49:24;2.70;;;1.33;;
48516;SDS011;34310;51.904;4.256;2023-04-24T09:52:09;2.53;;;1.05;;
48516;SDS011;34310;51.904;4.256;2023-04-24T09:54:37;2.60;;;0.93;;
48516;SDS011;34310;51.904;4.256;2023-04-24T09:57:07;2.72;;;1.10;;
48516;SDS011;34310;51.904;4.256;2023-04-24T09:59:35;3.20;;;1.10;;
48516;SDS011;34310;51.904;4.256;2023-04-24T10:02:19;3.90;;;0.98;;
48516;SDS011;34310;51.904;4.256;2023-04-24T10:04:54;3.55;;;1.10;;
48516;SDS011;34310;51.904;4.256;2023-04-24T10:07:25;3.25;;;1.00;;
48516;SDS011;34310;51.904;4.256;2023-04-24T10:09:52;2.58;;;1.25;;
48516;SDS011;34310;51.904;4.256;2023-04-24T10:12:20;5.07;;;1.27;;
48516;SDS011;34310;51.904;4.256;2023-04-24T10:15:09;4.05;;;0.90;;
48516;SDS011;34310;51.904;4.256;2023-04-24T10:17:39;8.18;;;1.40;;
48516;SDS011;34310;51.904;4.256;2023-04-24T10:20:07;7.15;;;1.35;;
48516;SDS011;34310;51.904;4.256;2023-04-24T10:22:35;4.32;;;1.20;;
48516;SDS011;34310;51.904;4.256;2023-04-24T10:25:04;5.47;;;1.17;;
48516;SDS011;34310;51.904;4.256;2023-04-24T10:27:32;3.67;;;1.60;;
48516;SDS011;34310;51.904;4.256;2023-04-24T10:30:02;8.50;;;1.10;;
48516;SDS011;34310;51.904;4.256;2023-04-24T10:32:30;5.88;;;1.20;;
48516;SDS011;34310;51.904;4.256;2023-04-24T10:34:57;2.10;;;1.00;;
48516;SDS011;34310;51.904;4.256;2023-04-24T10:37:24;1.70;;;1.00;;
48516;SDS011;34310;51.904;4.256;2023-04-24T10:39:53;4.95;;;1.30;;
48516;SDS011;34310;51.904;4.256;2023-04-24T10:42:22;5.05;;;1.33;;
48516;SDS011;34310;51.904;4.256;2023-04-24T10:44:49;11.98;;;1.75;;
48516;SDS011;34310;51.904;4.256;2023-04-24T10:47:17;15.23;;;1.40;;
48516;SDS011;34310;51.904;4.256;2023-04-24T10:49:44;16.25;;;1.60;;
48516;SDS011;34310;51.904;4.256;2023-04-24T10:52:11;12.13;;;1.67;;
48516;SDS011;34310;51.904;4.256;2023-04-24T10:59:49;13.50;;;2.17;;
48516;SDS011;34310;51.904;4.256;2023-04-24T11:02:18;17.30;;;1.90;;
48516;SDS011;34310;51.904;4.256;2023-04-24T11:05:04;11.38;;;1.80;;
48516;SDS011;34310;51.904;4.256;2023-04-24T11:10:46;19.88;;;2.47;;
48516;SDS011;34310;51.904;4.256;2023-04-24T11:13:21;17.23;;;1.70;;
48516;SDS011;34310;51.904;4.256;2023-04-24T11:18:39;27.88;;;2.00;;
48516;SDS011;34310;51.904;4.256;2023-04-24T11:21:12;16.70;;;1.63;;
48516;SDS011;34310;51.904;4.256;2023-04-24T11:23:42;11.77;;;1.48;;
48516;SDS011;34310;51.904;4.256;2023-04-24T11:26:21;11.50;;;1.70;;
48516;SDS011;34310;51.904;4.256;2023-04-24T11:29:07;17.08;;;2.40;;
48516;SDS011;34310;51.904;4.256;2023-04-24T11:34:10;18.77;;;2.08;;
48516;SDS011;34310;51.904;4.256;2023-04-24T11:36:42;15.93;;;2.00;;
48516;SDS011;34310;51.904;4.256;2023-04-24T11:39:11;12.07;;;1.83;;
48516;SDS011;34310;51.904;4.256;2023-04-24T11:41:39;9.20;;;1.58;;
48516;SDS011;34310;51.904;4.256;2023-04-24T11:44:07;9.35;;;1.70;;
48516;SDS011;34310;51.904;4.256;2023-04-24T11:46:35;9.93;;;1.50;;
48516;SDS011;34310;51.904;4.256;2023-04-24T11:49:04;12.02;;;1.90;;
48516;SDS011;34310;51.904;4.256;2023-04-24T11:51:32;5.72;;;1.40;;
48516;SDS011;34310;51.904;4.256;2023-04-24T11:54:18;9.30;;;1.55;;
48516;SDS011;34310;51.904;4.256;2023-04-24T11:56:46;7.35;;;1.42;;
48516;SDS011;34310;51.904;4.256;2023-04-24T11:59:14;8.45;;;1.60;;
48516;SDS011;34310;51.904;4.256;2023-04-24T12:01:44;10.27;;;2.08;;
48516;SDS011;34310;51.904;4.256;2023-04-24T12:04:13;7.25;;;1.50;;
48516;SDS011;34310;51.904;4.256;2023-04-24T12:07:01;9.07;;;1.77;;
48516;SDS011;34310;51.904;4.256;2023-04-24T12:09:39;4.93;;;1.38;;
48516;SDS011;34310;51.904;4.256;2023-04-24T12:12:16;8.63;;;1.65;;
48516;SDS011;34310;51.904;4.256;2023-04-24T12:17:16;4.90;;;1.60;;
48516;SDS011;34310;51.904;4.256;2023-04-24T12:19:47;6.20;;;1.48;;
48516;SDS011;34310;51.904;4.256;2023-04-24T12:22:15;4.97;;;1.33;;
48516;SDS011;34310;51.904;4.256;2023-04-24T12:24:58;8.57;;;1.80;;
48516;SDS011;34310;51.904;4.256;2023-04-24T12:27:30;6.18;;;1.50;;
48516;SDS011;34310;51.904;4.256;2023-04-24T12:29:59;4.72;;;1.63;;
48516;SDS011;34310;51.904;4.256;2023-04-24T12:32:28;5.47;;;1.75;;
48516;SDS011;34310;51.904;4.256;2023-04-24T12:34:56;6.65;;;1.35;;
48516;SDS011;34310;51.904;4.256;2023-04-24T12:37:24;6.70;;;1.65;;
48516;SDS011;34310;51.904;4.256;2023-04-24T12:40:11;4.70;;;1.65;;
48516;SDS011;34310;51.904;4.256;2023-04-24T12:42:46;4.05;;;1.35;;
48516;SDS011;34310;51.904;4.256;2023-04-24T12:45:15;3.00;;;1.10;;
48516;SDS011;34310;51.904;4.256;2023-04-24T12:47:44;6.32;;;1.35;;
48516;SDS011;34310;51.904;4.256;2023-04-24T12:50:13;6.25;;;1.35;;
48516;SDS011;34310;51.904;4.256;2023-04-24T12:52:42;8.48;;;1.63;;
48516;SDS011;34310;51.904;4.256;2023-04-24T12:55:11;7.00;;;2.03;;
48516;SDS011;34310;51.904;4.256;2023-04-24T12:57:39;6.05;;;1.85;;
48516;SDS011;34310;51.904;4.256;2023-04-24T13:00:07;4.05;;;1.10;;
48516;SDS011;34310;51.904;4.256;2023-04-24T13:02:34;6.80;;;1.55;;
48516;SDS011;34310;51.904;4.256;2023-04-24T13:05:03;6.63;;;1.42;;
48516;SDS011;34310;51.904;4.256;2023-04-24T13:07:30;4.47;;;1.05;;
48516;SDS011;34310;51.904;4.256;2023-04-24T13:09:58;4.25;;;1.98;;
48516;SDS011;34310;51.904;4.256;2023-04-24T13:12:25;5.18;;;1.30;;
48516;SDS011;34310;51.904;4.256;2023-04-24T13:14:53;4.68;;;1.42;;
48516;SDS011;34310;51.904;4.256;2023-04-24T13:17:21;3.80;;;1.30;;
48516;SDS011;34310;51.904;4.256;2023-04-24T13:19:48;4.95;;;1.60;;
48516;SDS011;34310;51.904;4.256;2023-04-24T13:22:17;5.03;;;1.30;;
48516;SDS011;34310;51.904;4.256;2023-04-24T13:24:45;3.70;;;1.27;;
48516;SDS011;34310;51.904;4.256;2023-04-24T13:27:14;7.93;;;1.75;;
48516;SDS011;34310;51.904;4.256;2023-04-24T13:29:43;8.20;;;1.88;;
48516;SDS011;34310;51.904;4.256;2023-04-24T13:32:10;5.55;;;1.60;;
48516;SDS011;34310;51.904;4.256;2023-04-24T13:34:38;3.67;;;1.60;;
48516;SDS011;34310;51.904;4.256;2023-04-24T13:37:05;6.32;;;1.70;;
48516;SDS011;34310;51.904;4.256;2023-04-24T13:39:34;6.00;;;1.52;;
48516;SDS011;34310;51.904;4.256;2023-04-24T13:42:02;4.38;;;1.60;;
48516;SDS011;34310;51.904;4.256;2023-04-24T13:44:30;4.40;;;1.50;;
48516;SDS011;34310;51.904;4.256;2023-04-24T13:46:58;4.32;;;1.60;;
48516;SDS011;34310;51.904;4.256;2023-04-24T13:49:26;4.82;;;1.55;;
48516;SDS011;34310;51.904;4.256;2023-04-24T13:51:56;5.70;;;1.42;;
48516;SDS011;34310;51.904;4.256;2023-04-24T13:54:24;2.45;;;1.23;;
48516;SDS011;34310;51.904;4.256;2023-04-24T13:56:52;4.78;;;1.30;;
48516;SDS011;34310;51.904;4.256;2023-04-24T13:59:20;6.18;;;1.50;;
48516;SDS011;34310;51.904;4.256;2023-04-24T14:01:47;4.85;;;1.48;;
48516;SDS011;34310;51.904;4.256;2023-04-24T14:04:15;5.18;;;1.50;;
48516;SDS011;34310;51.904;4.256;2023-04-24T14:06:43;6.43;;;1.55;;
48516;SDS011;34310;51.904;4.256;2023-04-24T14:09:10;6.55;;;2.08;;
48516;SDS011;34310;51.904;4.256;2023-04-24T14:11:39;4.30;;;1.50;;
48516;SDS011;34310;51.904;4.256;2023-04-24T14:14:06;6.50;;;1.65;;
48516;SDS011;34310;51.904;4.256;2023-04-24T14:16:34;5.95;;;1.45;;
48516;SDS011;34310;51.904;4.256;2023-04-24T14:19:01;5.93;;;1.73;;
48516;SDS011;34310;51.904;4.256;2023-04-24T14:21:29;3.78;;;1.52;;
48516;SDS011;34310;51.904;4.256;2023-04-24T14:23:56;4.40;;;1.70;;
48516;SDS011;34310;51.904;4.256;2023-04-24T14:26:23;4.70;;;1.70;;
48516;SDS011;34310;51.904;4.256;2023-04-24T14:28:51;4.13;;;1.58;;
48516;SDS011;34310;51.904;4.256;2023-04-24T14:31:32;3.00;;;1.50;;
48516;SDS011;34310;51.904;4.256;2023-04-24T14:34:00;6.75;;;1.67;;
48516;SDS011;34310;51.904;4.256;2023-04-24T14:36:27;6.55;;;1.85;;
48516;SDS011;34310;51.904;4.256;2023-04-24T14:38:54;5.07;;;1.52;;
48516;SDS011;34310;51.904;4.256;2023-04-24T14:41:21;5.28;;;1.95;;
48516;SDS011;34310;51.904;4.256;2023-04-24T14:43:49;8.95;;;1.98;;
48516;SDS011;34310;51.904;4.256;2023-04-24T14:46:16;7.03;;;2.10;;
48516;SDS011;34310;51.904;4.256;2023-04-24T14:48:44;5.68;;;1.95;;
48516;SDS011;34310;51.904;4.256;2023-04-24T14:51:11;8.77;;;2.00;;
48516;SDS011;34310;51.904;4.256;2023-04-24T14:53:38;3.45;;;1.63;;
48516;SDS011;34310;51.904;4.256;2023-04-24T14:56:06;13.57;;;2.33;;
48516;SDS011;34310;51.904;4.256;2023-04-24T14:58:34;5.57;;;1.60;;
48516;SDS011;34310;51.904;4.256;2023-04-24T15:01:01;9.93;;;1.90;;
48516;SDS011;34310;51.904;4.256;2023-04-24T15:03:28;9.43;;;2.13;;
48516;SDS011;34310;51.904;4.256;2023-04-24T15:05:57;5.30;;;1.70;;
48516;SDS011;34310;51.904;4.256;2023-04-24T15:08:24;6.20;;;1.80;;
48516;SDS011;34310;51.904;4.256;2023-04-24T15:10:52;6.50;;;2.10;;
48516;SDS011;34310;51.904;4.256;2023-04-24T15:13:19;4.78;;;1.80;;
48516;SDS011;34310;51.904;4.256;2023-04-24T15:15:47;4.93;;;2.10;;